sensor_id;sensor_type;location;lat;lon;timestamp;P1;durP1;ratioP1;P2;durP2;ratioP2
8526;SDS011;4301;48.362;8.478;2023-03-01T00:01:38;21.00;;;15.83;;
8526;SDS011;4301;48.362;8.478;2023-03-01T00:04:05;19.77;;;16.20;;
8526;SDS011;4301;48.362;8.478;2023-03-01T00:06:32;20.60;;;16.00;;
8526;SDS011;4301;48.362;8.478;2023-03-01T00:08:59;18.83;;;15.50;;
8526;SDS011;4301;48.362;8.478;2023-03-01T00:11:28;21.70;;;16.03;;
8526;SDS011;4301;48.362;8.478;2023-03-01T00:13:56;22.80;;;16.47;;
8526;SDS011;4301;48.362;8.478;2023-03-01T00:16:26;21.07;;;15.60;;
8526;SDS011;4301;48.362;8.478;2023-03-01T00:18:55;19.70;;;15.77;;
8526;SDS011;4301;48.362;8.478;2023-03-01T00:21:22;19.70;;;16.10;;
8526;SDS011;4301;48.362;8.478;2023-03-01T00:23:50;20.23;;;16.30;;
8526;SDS011;4301;48.362;8.478;2023-03-01T00:26:17;23.13;;;16.50;;
8526;SDS011;4301;48.362;8.478;2023-03-01T00:28:47;20.40;;;15.07;;
8526;SDS011;4301;48.362;8.478;2023-03-01T00:31:15;22.17;;;16.40;;
8526;SDS011;4301;48.362;8.478;2023-03-01T00:33:44;21.30;;;16.73;;
8526;SDS011;4301;48.362;8.478;2023-03-01T00:36:12;20.90;;;15.67;;
8526;SDS011;4301;48.362;8.478;2023-03-01T00:38:41;19.87;;;16.00;;
8526;SDS011;4301;48.362;8.478;2023-03-01T00:41:10;21.93;;;15.73;;
8526;SDS011;4301;48.362;8.478;2023-03-01T00:43:38;19.87;;;15.43;;
8526;SDS011;4301;48.362;8.478;2023-03-01T00:46:07;19.60;;;15.60;;
8526;SDS011;4301;48.362;8.478;2023-03-01T00:48:36;19.30;;;15.90;;
8526;SDS011;4301;48.362;8.478;2023-03-01T00:51:04;19.97;;;15.37;;
8526;SDS011;4301;48.362;8.478;2023-03-01T00:53:32;19.70;;;16.27;;
8526;SDS011;4301;48.362;8.478;2023-03-01T00:55:59;22.17;;;16.23;;
8526;SDS011;4301;48.362;8.478;2023-03-01T00:58:26;20.13;;;15.90;;
8526;SDS011;4301;48.362;8.478;2023-03-01T01:00:53;20.30;;;16.10;;
8526;SDS011;4301;48.362;8.478;2023-03-01T01:03:22;19.97;;;15.93;;
8526;SDS011;4301;48.362;8.478;2023-03-01T01:05:54;20.60;;;16.00;;
8526;SDS011;4301;48.362;8.478;2023-03-01T01:08:21;20.43;;;15.33;;
8526;SDS011;4301;48.362;8.478;2023-03-01T01:10:48;20.70;;;15.43;;
8526;SDS011;4301;48.362;8.478;2023-03-01T01:13:15;20.90;;;16.47;;
8526;SDS011;4301;48.362;8.478;2023-03-01T01:15:41;21.10;;;16.00;;
8526;SDS011;4301;48.362;8.478;2023-03-01T01:18:08;22.20;;;17.03;;
8526;SDS011;4301;48.362;8.478;2023-03-01T01:20:37;21.27;;;16.87;;
8526;SDS011;4301;48.362;8.478;2023-03-01T01:23:05;22.00;;;15.97;;
8526;SDS011;4301;48.362;8.478;2023-03-01T01:25:33;19.47;;;15.97;;
8526;SDS011;4301;48.362;8.478;2023-03-01T01:28:01;23.47;;;17.03;;
8526;SDS011;4301;48.362;8.478;2023-03-01T01:30:29;20.83;;;16.43;;
8526;SDS011;4301;48.362;8.478;2023-03-01T01:32:56;22.23;;;16.27;;
8526;SDS011;4301;48.362;8.478;2023-03-01T01:35:22;21.00;;;16.53;;
8526;SDS011;4301;48.362;8.478;2023-03-01T01:37:51;22.60;;;16.30;;
8526;SDS011;4301;48.362;8.478;2023-03-01T01:40:18;24.30;;;16.77;;
8526;SDS011;4301;48.362;8.478;2023-03-01T01:42:45;21.37;;;16.57;;
8526;SDS011;4301;48.362;8.478;2023-03-01T01:47:59;21.83;;;16.43;;
8526;SDS011;4301;48.362;8.478;2023-03-01T01:50:30;22.47;;;16.67;;
8526;SDS011;4301;48.362;8.478;2023-03-01T01:53:06;20.97;;;16.27;;
8526;SDS011;4301;48.362;8.478;2023-03-01T01:55:36;21.07;;;16.83;;
8526;SDS011;4301;48.362;8.478;2023-03-01T01:58:06;22.40;;;16.30;;
8526;SDS011;4301;48.362;8.478;2023-03-01T02:00:35;23.43;;;17.90;;
8526;SDS011;4301;48.362;8.478;2023-03-01T02:03:04;21.90;;;17.47;;
8526;SDS011;4301;48.362;8.478;2023-03-01T02:05:36;21.43;;;16.40;;
8526;SDS011;4301;48.362;8.478;2023-03-01T02:08:11;22.17;;;16.27;;
8526;SDS011;4301;48.362;8.478;2023-03-01T02:10:40;23.03;;;17.03;;
8526;SDS011;4301;48.362;8.478;2023-03-01T02:13:08;23.20;;;17.17;;
8526;SDS011;4301;48.362;8.478;2023-03-01T02:15:37;22.47;;;17.83;;
8526;SDS011;4301;48.362;8.478;2023-03-01T02:18:06;21.93;;;17.60;;
8526;SDS011;4301;48.362;8.478;2023-03-01T02:20:38;23.30;;;17.83;;
8526;SDS011;4301;48.362;8.478;2023-03-01T02:23:12;22.50;;;16.90;;
8526;SDS011;4301;48.362;8.478;2023-03-01T02:25:43;23.93;;;17.53;;
8526;SDS011;4301;48.362;8.478;2023-03-01T02:28:24;21.93;;;17.90;;
8526;SDS011;4301;48.362;8.478;2023-03-01T02:30:52;23.37;;;18.03;;
8526;SDS011;4301;48.362;8.478;2023-03-01T02:33:37;27.67;;;18.43;;
8526;SDS011;4301;48.362;8.478;2023-03-01T02:36:06;24.30;;;17.90;;
8526;SDS011;4301;48.362;8.478;2023-03-01T02:38:36;24.73;;;18.20;;
8526;SDS011;4301;48.362;8.478;2023-03-01T02:41:03;25.23;;;18.77;;
8526;SDS011;4301;48.362;8.478;2023-03-01T02:43:34;27.07;;;19.63;;
8526;SDS011;4301;48.362;8.478;2023-03-01T02:46:03;27.20;;;18.60;;
8526;SDS011;4301;48.362;8.478;2023-03-01T02:48:40;25.30;;;19.00;;
8526;SDS011;4301;48.362;8.478;2023-03-01T02:51:11;24.97;;;18.60;;
8526;SDS011;4301;48.362;8.478;2023-03-01T02:53:53;23.90;;;18.80;;
8526;SDS011;4301;48.362;8.478;2023-03-01T02:56:25;24.17;;;17.97;;
8526;SDS011;4301;48.362;8.478;2023-03-01T02:58:53;25.20;;;19.20;;
8526;SDS011;4301;48.362;8.478;2023-03-01T03:01:26;25.57;;;18.67;;
8526;SDS011;4301;48.362;8.478;2023-03-01T03:04:01;24.07;;;18.70;;
8526;SDS011;4301;48.362;8.478;2023-03-01T03:06:29;23.07;;;18.80;;
8526;SDS011;4301;48.362;8.478;2023-03-01T03:08:56;24.80;;;18.50;;
8526;SDS011;4301;48.362;8.478;2023-03-01T03:11:23;26.33;;;18.63;;
8526;SDS011;4301;48.362;8.478;2023-03-01T03:13:50;24.10;;;17.63;;
8526;SDS011;4301;48.362;8.478;2023-03-01T03:16:19;29.47;;;18.73;;
8526;SDS011;4301;48.362;8.478;2023-03-01T03:18:47;22.87;;;17.13;;
8526;SDS011;4301;48.362;8.478;2023-03-01T03:21:14;22.00;;;16.83;;
8526;SDS011;4301;48.362;8.478;2023-03-01T03:23:42;23.90;;;18.60;;
8526;SDS011;4301;48.362;8.478;2023-03-01T03:26:09;23.27;;;17.63;;
8526;SDS011;4301;48.362;8.478;2023-03-01T03:28:38;22.37;;;17.90;;
8526;SDS011;4301;48.362;8.478;2023-03-01T03:31:06;24.60;;;18.63;;
8526;SDS011;4301;48.362;8.478;2023-03-01T03:33:34;23.90;;;17.83;;
8526;SDS011;4301;48.362;8.478;2023-03-01T03:36:02;22.07;;;17.87;;
8526;SDS011;4301;48.362;8.478;2023-03-01T03:38:29;22.77;;;17.80;;
8526;SDS011;4301;48.362;8.478;2023-03-01T03:41:00;24.20;;;18.10;;
8526;SDS011;4301;48.362;8.478;2023-03-01T03:43:29;21.50;;;18.23;;
8526;SDS011;4301;48.362;8.478;2023-03-01T03:45:58;20.83;;;17.27;;
8526;SDS011;4301;48.362;8.478;2023-03-01T03:48:25;23.50;;;17.57;;
8526;SDS011;4301;48.362;8.478;2023-03-01T03:50:55;21.67;;;17.20;;
8526;SDS011;4301;48.362;8.478;2023-03-01T03:53:23;20.50;;;17.20;;
8526;SDS011;4301;48.362;8.478;2023-03-01T03:55:55;21.77;;;18.00;;
8526;SDS011;4301;48.362;8.478;2023-03-01T03:58:23;24.80;;;17.90;;
8526;SDS011;4301;48.362;8.478;2023-03-01T04:00:52;21.07;;;18.00;;
8526;SDS011;4301;48.362;8.478;2023-03-01T04:03:21;23.37;;;18.47;;
8526;SDS011;4301;48.362;8.478;2023-03-01T04:05:49;21.87;;;17.80;;
8526;SDS011;4301;48.362;8.478;2023-03-01T04:08:19;22.87;;;18.37;;
8526;SDS011;4301;48.362;8.478;2023-03-01T04:10:48;23.83;;;17.70;;
8526;SDS011;4301;48.362;8.478;2023-03-01T04:13:17;22.87;;;18.27;;
8526;SDS011;4301;48.362;8.478;2023-03-01T04:15:46;23.20;;;18.60;;
8526;SDS011;4301;48.362;8.478;2023-03-01T04:18:15;25.63;;;19.33;;
8526;SDS011;4301;48.362;8.478;2023-03-01T04:20:43;23.53;;;17.80;;
8526;SDS011;4301;48.362;8.478;2023-03-01T04:23:11;24.63;;;18.50;;
8526;SDS011;4301;48.362;8.478;2023-03-01T04:25:44;23.73;;;19.07;;
8526;SDS011;4301;48.362;8.478;2023-03-01T04:28:14;23.10;;;17.80;;
8526;SDS011;4301;48.362;8.478;2023-03-01T04:30:42;25.77;;;18.30;;
8526;SDS011;4301;48.362;8.478;2023-03-01T04:33:09;24.53;;;18.70;;
8526;SDS011;4301;48.362;8.478;2023-03-01T04:35:37;23.50;;;18.53;;
8526;SDS011;4301;48.362;8.478;2023-03-01T04:38:05;21.83;;;17.77;;
8526;SDS011;4301;48.362;8.478;2023-03-01T04:40:33;23.07;;;18.50;;
8526;SDS011;4301;48.362;8.478;2023-03-01T04:43:01;26.33;;;19.03;;
8526;SDS011;4301;48.362;8.478;2023-03-01T04:45:29;24.60;;;19.30;;
8526;SDS011;4301;48.362;8.478;2023-03-01T04:47:59;29.33;;;19.20;;
8526;SDS011;4301;48.362;8.478;2023-03-01T04:50:26;24.00;;;18.80;;
8526;SDS011;4301;48.362;8.478;2023-03-01T04:52:53;22.43;;;18.70;;
8526;SDS011;4301;48.362;8.478;2023-03-01T04:55:23;24.57;;;18.60;;
8526;SDS011;4301;48.362;8.478;2023-03-01T04:57:50;26.07;;;19.27;;
8526;SDS011;4301;48.362;8.478;2023-03-01T05:00:19;24.43;;;19.30;;
8526;SDS011;4301;48.362;8.478;2023-03-01T05:02:48;25.00;;;19.40;;
8526;SDS011;4301;48.362;8.478;2023-03-01T05:05:19;23.87;;;18.67;;
8526;SDS011;4301;48.362;8.478;2023-03-01T05:07:50;23.80;;;18.97;;
8526;SDS011;4301;48.362;8.478;2023-03-01T05:10:18;26.70;;;19.53;;
8526;SDS011;4301;48.362;8.478;2023-03-01T05:12:45;21.53;;;18.23;;
8526;SDS011;4301;48.362;8.478;2023-03-01T05:15:13;25.37;;;19.30;;
8526;SDS011;4301;48.362;8.478;2023-03-01T05:17:41;25.70;;;19.47;;
8526;SDS011;4301;48.362;8.478;2023-03-01T05:20:08;23.47;;;18.23;;
8526;SDS011;4301;48.362;8.478;2023-03-01T05:22:36;23.73;;;19.10;;
8526;SDS011;4301;48.362;8.478;2023-03-01T05:25:04;24.33;;;19.50;;
8526;SDS011;4301;48.362;8.478;2023-03-01T05:27:32;24.67;;;19.43;;
8526;SDS011;4301;48.362;8.478;2023-03-01T05:30:00;26.07;;;20.00;;
8526;SDS011;4301;48.362;8.478;2023-03-01T05:32:38;25.70;;;19.67;;
8526;SDS011;4301;48.362;8.478;2023-03-01T05:35:09;24.60;;;19.67;;
8526;SDS011;4301;48.362;8.478;2023-03-01T05:37:38;24.67;;;19.50;;
8526;SDS011;4301;48.362;8.478;2023-03-01T05:40:07;25.53;;;19.83;;
8526;SDS011;4301;48.362;8.478;2023-03-01T05:42:40;23.97;;;19.03;;
8526;SDS011;4301;48.362;8.478;2023-03-01T05:45:08;24.70;;;18.87;;
8526;SDS011;4301;48.362;8.478;2023-03-01T05:47:37;26.03;;;19.30;;
8526;SDS011;4301;48.362;8.478;2023-03-01T05:50:10;25.97;;;18.40;;
8526;SDS011;4301;48.362;8.478;2023-03-01T05:52:38;25.37;;;19.67;;
8526;SDS011;4301;48.362;8.478;2023-03-01T05:55:05;26.73;;;19.47;;
8526;SDS011;4301;48.362;8.478;2023-03-01T05:57:33;25.67;;;20.63;;
8526;SDS011;4301;48.362;8.478;2023-03-01T06:00:00;24.77;;;19.60;;
8526;SDS011;4301;48.362;8.478;2023-03-01T06:02:27;25.20;;;19.13;;
8526;SDS011;4301;48.362;8.478;2023-03-01T06:04:55;24.70;;;19.47;;
8526;SDS011;4301;48.362;8.478;2023-03-01T06:07:23;26.03;;;19.50;;
8526;SDS011;4301;48.362;8.478;2023-03-01T06:09:50;25.83;;;20.03;;
8526;SDS011;4301;48.362;8.478;2023-03-01T06:12:17;26.23;;;20.63;;
8526;SDS011;4301;48.362;8.478;2023-03-01T06:14:44;22.83;;;19.43;;
8526;SDS011;4301;48.362;8.478;2023-03-01T06:17:12;26.43;;;19.93;;
8526;SDS011;4301;48.362;8.478;2023-03-01T06:19:40;27.67;;;19.87;;
8526;SDS011;4301;48.362;8.478;2023-03-01T06:22:07;25.13;;;19.27;;
8526;SDS011;4301;48.362;8.478;2023-03-01T06:24:35;24.17;;;19.67;;
8526;SDS011;4301;48.362;8.478;2023-03-01T06:27:02;24.90;;;19.30;;
8526;SDS011;4301;48.362;8.478;2023-03-01T06:29:29;27.07;;;19.67;;
8526;SDS011;4301;48.362;8.478;2023-03-01T06:31:56;24.10;;;21.45;;
8526;SDS011;4301;48.362;8.478;2023-03-01T06:34:23;26.83;;;19.77;;
8526;SDS011;4301;48.362;8.478;2023-03-01T06:36:50;24.27;;;18.43;;
8526;SDS011;4301;48.362;8.478;2023-03-01T06:39:17;23.60;;;19.20;;
8526;SDS011;4301;48.362;8.478;2023-03-01T06:41:45;25.67;;;18.97;;
8526;SDS011;4301;48.362;8.478;2023-03-01T06:44:12;24.80;;;19.67;;
8526;SDS011;4301;48.362;8.478;2023-03-01T06:46:39;25.83;;;19.27;;
8526;SDS011;4301;48.362;8.478;2023-03-01T06:49:06;26.13;;;19.13;;
8526;SDS011;4301;48.362;8.478;2023-03-01T06:51:34;22.60;;;18.03;;
8526;SDS011;4301;48.362;8.478;2023-03-01T06:54:02;24.90;;;18.90;;
8526;SDS011;4301;48.362;8.478;2023-03-01T06:56:30;26.23;;;19.37;;
8526;SDS011;4301;48.362;8.478;2023-03-01T06:58:58;25.03;;;19.37;;
8526;SDS011;4301;48.362;8.478;2023-03-01T07:01:25;22.80;;;18.57;;
8526;SDS011;4301;48.362;8.478;2023-03-01T07:03:52;22.70;;;18.53;;
8526;SDS011;4301;48.362;8.478;2023-03-01T07:06:19;26.93;;;20.27;;
8526;SDS011;4301;48.362;8.478;2023-03-01T07:08:46;24.43;;;19.80;;
8526;SDS011;4301;48.362;8.478;2023-03-01T07:11:13;22.30;;;18.57;;
8526;SDS011;4301;48.362;8.478;2023-03-01T07:13:40;22.87;;;18.50;;
8526;SDS011;4301;48.362;8.478;2023-03-01T07:16:08;26.03;;;18.53;;
8526;SDS011;4301;48.362;8.478;2023-03-01T07:18:35;23.47;;;18.93;;
8526;SDS011;4301;48.362;8.478;2023-03-01T07:21:05;23.60;;;18.23;;
8526;SDS011;4301;48.362;8.478;2023-03-01T07:23:33;24.40;;;18.47;;
8526;SDS011;4301;48.362;8.478;2023-03-01T07:25:59;24.57;;;18.60;;
8526;SDS011;4301;48.362;8.478;2023-03-01T07:28:27;23.87;;;19.10;;
8526;SDS011;4301;48.362;8.478;2023-03-01T07:30:54;24.70;;;18.27;;
8526;SDS011;4301;48.362;8.478;2023-03-01T07:33:22;21.57;;;17.80;;
8526;SDS011;4301;48.362;8.478;2023-03-01T07:35:55;23.63;;;17.80;;
8526;SDS011;4301;48.362;8.478;2023-03-01T07:38:22;21.60;;;17.63;;
8526;SDS011;4301;48.362;8.478;2023-03-01T07:40:49;24.47;;;18.47;;
8526;SDS011;4301;48.362;8.478;2023-03-01T07:43:16;24.03;;;17.90;;
8526;SDS011;4301;48.362;8.478;2023-03-01T07:45:43;21.50;;;17.97;;
8526;SDS011;4301;48.362;8.478;2023-03-01T07:48:10;24.30;;;17.80;;
8526;SDS011;4301;48.362;8.478;2023-03-01T07:50:39;21.90;;;17.30;;
8526;SDS011;4301;48.362;8.478;2023-03-01T07:53:06;23.87;;;18.20;;
8526;SDS011;4301;48.362;8.478;2023-03-01T07:55:33;24.03;;;17.60;;
8526;SDS011;4301;48.362;8.478;2023-03-01T07:57:59;22.77;;;18.57;;
8526;SDS011;4301;48.362;8.478;2023-03-01T08:00:26;26.03;;;18.70;;
8526;SDS011;4301;48.362;8.478;2023-03-01T08:02:53;24.23;;;18.20;;
8526;SDS011;4301;48.362;8.478;2023-03-01T08:05:20;22.50;;;17.97;;
8526;SDS011;4301;48.362;8.478;2023-03-01T08:07:49;25.30;;;19.03;;
8526;SDS011;4301;48.362;8.478;2023-03-01T08:10:16;25.50;;;18.53;;
8526;SDS011;4301;48.362;8.478;2023-03-01T08:12:43;23.87;;;18.30;;
8526;SDS011;4301;48.362;8.478;2023-03-01T08:15:10;25.60;;;19.33;;
8526;SDS011;4301;48.362;8.478;2023-03-01T08:17:37;24.20;;;18.03;;
8526;SDS011;4301;48.362;8.478;2023-03-01T08:20:05;24.97;;;18.37;;
8526;SDS011;4301;48.362;8.478;2023-03-01T08:22:32;24.10;;;18.87;;
8526;SDS011;4301;48.362;8.478;2023-03-01T08:25:01;23.63;;;19.20;;
8526;SDS011;4301;48.362;8.478;2023-03-01T08:27:27;25.23;;;18.90;;
8526;SDS011;4301;48.362;8.478;2023-03-01T08:29:54;21.87;;;18.40;;
8526;SDS011;4301;48.362;8.478;2023-03-01T08:32:21;24.27;;;18.37;;
8526;SDS011;4301;48.362;8.478;2023-03-01T08:34:48;24.73;;;18.33;;
8526;SDS011;4301;48.362;8.478;2023-03-01T08:37:15;22.53;;;17.60;;
8526;SDS011;4301;48.362;8.478;2023-03-01T08:39:42;24.43;;;18.67;;
8526;SDS011;4301;48.362;8.478;2023-03-01T08:42:10;24.60;;;18.30;;
8526;SDS011;4301;48.362;8.478;2023-03-01T08:44:37;26.03;;;19.63;;
8526;SDS011;4301;48.362;8.478;2023-03-01T08:47:04;24.17;;;18.93;;
8526;SDS011;4301;48.362;8.478;2023-03-01T08:49:31;25.93;;;18.80;;
8526;SDS011;4301;48.362;8.478;2023-03-01T08:51:58;25.53;;;19.00;;
8526;SDS011;4301;48.362;8.478;2023-03-01T08:54:26;24.37;;;18.27;;
8526;SDS011;4301;48.362;8.478;2023-03-01T08:56:53;25.77;;;18.40;;
8526;SDS011;4301;48.362;8.478;2023-03-01T08:59:21;24.70;;;18.17;;
8526;SDS011;4301;48.362;8.478;2023-03-01T09:01:48;23.07;;;18.00;;
8526;SDS011;4301;48.362;8.478;2023-03-01T09:04:15;23.60;;;19.03;;
8526;SDS011;4301;48.362;8.478;2023-03-01T09:06:42;25.77;;;18.53;;
8526;SDS011;4301;48.362;8.478;2023-03-01T09:09:12;24.40;;;18.20;;
8526;SDS011;4301;48.362;8.478;2023-03-01T09:11:41;30.93;;;21.93;;
8526;SDS011;4301;48.362;8.478;2023-03-01T09:14:08;24.40;;;18.50;;
8526;SDS011;4301;48.362;8.478;2023-03-01T09:16:36;21.70;;;18.20;;
8526;SDS011;4301;48.362;8.478;2023-03-01T09:19:03;24.13;;;19.07;;
8526;SDS011;4301;48.362;8.478;2023-03-01T09:21:30;23.37;;;18.57;;
8526;SDS011;4301;48.362;8.478;2023-03-01T09:23:57;25.20;;;17.63;;
8526;SDS011;4301;48.362;8.478;2023-03-01T09:26:24;23.80;;;18.07;;
8526;SDS011;4301;48.362;8.478;2023-03-01T09:28:52;22.03;;;17.97;;
8526;SDS011;4301;48.362;8.478;2023-03-01T09:31:21;26.53;;;18.97;;
8526;SDS011;4301;48.362;8.478;2023-03-01T09:33:51;20.27;;;17.17;;
8526;SDS011;4301;48.362;8.478;2023-03-01T09:36:20;21.77;;;17.10;;
8526;SDS011;4301;48.362;8.478;2023-03-01T09:38:48;22.63;;;17.47;;
8526;SDS011;4301;48.362;8.478;2023-03-01T09:41:19;23.70;;;18.17;;
8526;SDS011;4301;48.362;8.478;2023-03-01T09:44:05;22.93;;;18.00;;
8526;SDS011;4301;48.362;8.478;2023-03-01T09:46:42;25.60;;;18.13;;
8526;SDS011;4301;48.362;8.478;2023-03-01T09:49:14;23.10;;;17.70;;
8526;SDS011;4301;48.362;8.478;2023-03-01T09:51:47;25.03;;;18.43;;
8526;SDS011;4301;48.362;8.478;2023-03-01T09:54:21;25.43;;;18.07;;
8526;SDS011;4301;48.362;8.478;2023-03-01T09:56:53;22.77;;;18.23;;
8526;SDS011;4301;48.362;8.478;2023-03-01T09:59:33;26.40;;;18.70;;
8526;SDS011;4301;48.362;8.478;2023-03-01T10:02:16;24.93;;;18.57;;
8526;SDS011;4301;48.362;8.478;2023-03-01T10:04:51;24.10;;;17.93;;
8526;SDS011;4301;48.362;8.478;2023-03-01T10:07:22;26.27;;;18.47;;
8526;SDS011;4301;48.362;8.478;2023-03-01T10:09:59;27.37;;;18.73;;
8526;SDS011;4301;48.362;8.478;2023-03-01T10:12:31;24.67;;;18.57;;
8526;SDS011;4301;48.362;8.478;2023-03-01T10:15:02;24.77;;;18.50;;
8526;SDS011;4301;48.362;8.478;2023-03-01T10:17:36;24.10;;;18.63;;
8526;SDS011;4301;48.362;8.478;2023-03-01T10:20:13;21.03;;;17.70;;
8526;SDS011;4301;48.362;8.478;2023-03-01T10:22:46;29.20;;;18.93;;
8526;SDS011;4301;48.362;8.478;2023-03-01T10:25:17;23.37;;;18.37;;
8526;SDS011;4301;48.362;8.478;2023-03-01T10:27:51;24.00;;;18.53;;
8526;SDS011;4301;48.362;8.478;2023-03-01T10:30:19;26.50;;;18.80;;
8526;SDS011;4301;48.362;8.478;2023-03-01T10:32:49;30.20;;;21.13;;
8526;SDS011;4301;48.362;8.478;2023-03-01T10:35:21;26.53;;;19.37;;
8526;SDS011;4301;48.362;8.478;2023-03-01T10:37:57;27.53;;;19.13;;
8526;SDS011;4301;48.362;8.478;2023-03-01T10:40:25;27.13;;;18.57;;
8526;SDS011;4301;48.362;8.478;2023-03-01T10:42:51;25.60;;;18.07;;
8526;SDS011;4301;48.362;8.478;2023-03-01T10:45:27;28.07;;;18.80;;
8526;SDS011;4301;48.362;8.478;2023-03-01T10:48:03;24.67;;;17.57;;
8526;SDS011;4301;48.362;8.478;2023-03-01T10:50:33;25.90;;;19.03;;
8526;SDS011;4301;48.362;8.478;2023-03-01T10:53:03;22.43;;;18.17;;
8526;SDS011;4301;48.362;8.478;2023-03-01T10:55:31;23.23;;;18.27;;
8526;SDS011;4301;48.362;8.478;2023-03-01T10:58:08;23.80;;;18.73;;
8526;SDS011;4301;48.362;8.478;2023-03-01T11:00:48;24.43;;;19.07;;
8526;SDS011;4301;48.362;8.478;2023-03-01T11:03:18;23.03;;;18.27;;
8526;SDS011;4301;48.362;8.478;2023-03-01T11:05:54;21.50;;;17.83;;
8526;SDS011;4301;48.362;8.478;2023-03-01T11:08:30;21.10;;;16.83;;
8526;SDS011;4301;48.362;8.478;2023-03-01T11:11:19;20.37;;;17.87;;
8526;SDS011;4301;48.362;8.478;2023-03-01T11:13:51;18.80;;;16.80;;
8526;SDS011;4301;48.362;8.478;2023-03-01T11:16:27;20.07;;;17.93;;
8526;SDS011;4301;48.362;8.478;2023-03-01T11:18:58;24.37;;;17.33;;
8526;SDS011;4301;48.362;8.478;2023-03-01T11:21:29;23.63;;;19.30;;
8526;SDS011;4301;48.362;8.478;2023-03-01T11:23:59;19.63;;;16.63;;
8526;SDS011;4301;48.362;8.478;2023-03-01T11:26:27;21.10;;;18.03;;
8526;SDS011;4301;48.362;8.478;2023-03-01T11:28:56;20.43;;;18.23;;
8526;SDS011;4301;48.362;8.478;2023-03-01T11:31:28;20.50;;;18.33;;
8526;SDS011;4301;48.362;8.478;2023-03-01T11:33:58;20.67;;;17.70;;
8526;SDS011;4301;48.362;8.478;2023-03-01T11:36:31;17.90;;;16.17;;
8526;SDS011;4301;48.362;8.478;2023-03-01T11:39:02;19.30;;;17.40;;
8526;SDS011;4301;48.362;8.478;2023-03-01T11:41:35;18.20;;;15.80;;
8526;SDS011;4301;48.362;8.478;2023-03-01T11:44:05;17.40;;;15.77;;
8526;SDS011;4301;48.362;8.478;2023-03-01T11:46:49;18.57;;;16.77;;
8526;SDS011;4301;48.362;8.478;2023-03-01T11:52:32;17.80;;;15.90;;
8526;SDS011;4301;48.362;8.478;2023-03-01T11:55:17;19.00;;;17.00;;
8526;SDS011;4301;48.362;8.478;2023-03-01T11:57:56;18.00;;;16.10;;
8526;SDS011;4301;48.362;8.478;2023-03-01T12:00:36;18.27;;;16.27;;
8526;SDS011;4301;48.362;8.478;2023-03-01T12:03:27;17.20;;;15.50;;
8526;SDS011;4301;48.362;8.478;2023-03-01T12:06:09;17.60;;;15.90;;
8526;SDS011;4301;48.362;8.478;2023-03-01T12:08:51;18.97;;;17.07;;
8526;SDS011;4301;48.362;8.478;2023-03-01T12:11:34;18.80;;;16.87;;
8526;SDS011;4301;48.362;8.478;2023-03-01T12:20:11;18.97;;;16.97;;
8526;SDS011;4301;48.362;8.478;2023-03-01T12:22:54;18.37;;;16.47;;
8526;SDS011;4301;48.362;8.478;2023-03-01T12:25:32;17.80;;;15.97;;
8526;SDS011;4301;48.362;8.478;2023-03-01T12:28:08;19.33;;;16.60;;
8526;SDS011;4301;48.362;8.478;2023-03-01T12:30:50;18.38;;;16.50;;
8526;SDS011;4301;48.362;8.478;2023-03-01T12:33:29;18.20;;;16.50;;
8526;SDS011;4301;48.362;8.478;2023-03-01T12:39:06;18.83;;;16.83;;
8526;SDS011;4301;48.362;8.478;2023-03-01T12:41:52;18.33;;;16.53;;
8526;SDS011;4301;48.362;8.478;2023-03-01T12:44:41;18.07;;;16.37;;
8526;SDS011;4301;48.362;8.478;2023-03-01T12:47:22;20.97;;;16.03;;
8526;SDS011;4301;48.362;8.478;2023-03-01T12:50:05;17.80;;;16.10;;
8526;SDS011;4301;48.362;8.478;2023-03-01T12:52:40;19.63;;;16.10;;
8526;SDS011;4301;48.362;8.478;2023-03-01T12:55:17;19.60;;;15.93;;
8526;SDS011;4301;48.362;8.478;2023-03-01T12:57:53;18.37;;;16.67;;
8526;SDS011;4301;48.362;8.478;2023-03-01T13:00:30;17.70;;;15.63;;
8526;SDS011;4301;48.362;8.478;2023-03-01T13:03:02;17.83;;;15.33;;
8526;SDS011;4301;48.362;8.478;2023-03-01T13:05:41;17.57;;;15.87;;
8526;SDS011;4301;48.362;8.478;2023-03-01T13:08:20;15.97;;;14.37;;
8526;SDS011;4301;48.362;8.478;2023-03-01T13:10:53;17.70;;;16.00;;
8526;SDS011;4301;48.362;8.478;2023-03-01T13:13:27;17.40;;;15.57;;
8526;SDS011;4301;48.362;8.478;2023-03-01T13:15:55;21.13;;;16.53;;
8526;SDS011;4301;48.362;8.478;2023-03-01T13:18:32;17.70;;;16.00;;
8526;SDS011;4301;48.362;8.478;2023-03-01T13:21:00;20.33;;;18.33;;
8526;SDS011;4301;48.362;8.478;2023-03-01T13:23:30;18.60;;;16.57;;
8526;SDS011;4301;48.362;8.478;2023-03-01T13:26:07;19.23;;;16.67;;
8526;SDS011;4301;48.362;8.478;2023-03-01T13:28:45;21.43;;;18.43;;
8526;SDS011;4301;48.362;8.478;2023-03-01T13:37:22;22.40;;;19.93;;
8526;SDS011;4301;48.362;8.478;2023-03-01T13:39:56;19.97;;;17.80;;
8526;SDS011;4301;48.362;8.478;2023-03-01T13:42:43;20.40;;;18.37;;
8526;SDS011;4301;48.362;8.478;2023-03-01T13:45:17;17.10;;;15.40;;
8526;SDS011;4301;48.362;8.478;2023-03-01T13:47:47;19.10;;;17.20;;
8526;SDS011;4301;48.362;8.478;2023-03-01T13:50:20;20.07;;;17.97;;
8526;SDS011;4301;48.362;8.478;2023-03-01T13:52:50;19.20;;;17.23;;
8526;SDS011;4301;48.362;8.478;2023-03-01T13:55:23;17.27;;;15.57;;
8526;SDS011;4301;48.362;8.478;2023-03-01T13:57:54;18.97;;;15.97;;
8526;SDS011;4301;48.362;8.478;2023-03-01T14:00:29;17.93;;;16.20;;
8526;SDS011;4301;48.362;8.478;2023-03-01T14:03:01;16.67;;;14.70;;
8526;SDS011;4301;48.362;8.478;2023-03-01T14:05:30;22.03;;;19.47;;
8526;SDS011;4301;48.362;8.478;2023-03-01T14:07:57;18.87;;;16.93;;
8526;SDS011;4301;48.362;8.478;2023-03-01T14:10:25;25.60;;;21.43;;
8526;SDS011;4301;48.362;8.478;2023-03-01T14:13:00;16.83;;;15.13;;
8526;SDS011;4301;48.362;8.478;2023-03-01T14:15:42;18.23;;;16.43;;
8526;SDS011;4301;48.362;8.478;2023-03-01T14:18:17;18.97;;;17.23;;
8526;SDS011;4301;48.362;8.478;2023-03-01T14:20:48;19.80;;;17.80;;
8526;SDS011;4301;48.362;8.478;2023-03-01T14:23:18;18.17;;;16.13;;
8526;SDS011;4301;48.362;8.478;2023-03-01T14:25:47;16.03;;;14.43;;
8526;SDS011;4301;48.362;8.478;2023-03-01T14:28:17;18.63;;;15.00;;
8526;SDS011;4301;48.362;8.478;2023-03-01T14:30:48;15.90;;;14.33;;
8526;SDS011;4301;48.362;8.478;2023-03-01T14:33:21;19.27;;;17.20;;
8526;SDS011;4301;48.362;8.478;2023-03-01T14:35:54;17.13;;;15.00;;
8526;SDS011;4301;48.362;8.478;2023-03-01T14:38:23;18.63;;;14.90;;
8526;SDS011;4301;48.362;8.478;2023-03-01T14:40:55;17.13;;;15.33;;
8526;SDS011;4301;48.362;8.478;2023-03-01T14:43:24;16.37;;;14.77;;
8526;SDS011;4301;48.362;8.478;2023-03-01T14:45:53;16.67;;;15.00;;
8526;SDS011;4301;48.362;8.478;2023-03-01T14:48:20;17.67;;;15.40;;
8526;SDS011;4301;48.362;8.478;2023-03-01T14:50:47;16.83;;;15.20;;
8526;SDS011;4301;48.362;8.478;2023-03-01T14:53:16;16.97;;;15.37;;
8526;SDS011;4301;48.362;8.478;2023-03-01T14:55:46;18.60;;;16.10;;
8526;SDS011;4301;48.362;8.478;2023-03-01T14:58:15;16.87;;;15.27;;
8526;SDS011;4301;48.362;8.478;2023-03-01T15:00:46;17.70;;;15.90;;
8526;SDS011;4301;48.362;8.478;2023-03-01T15:03:20;19.20;;;15.90;;
8526;SDS011;4301;48.362;8.478;2023-03-01T15:05:51;17.50;;;15.67;;
8526;SDS011;4301;48.362;8.478;2023-03-01T15:08:20;19.93;;;15.80;;
8526;SDS011;4301;48.362;8.478;2023-03-01T15:10:56;18.63;;;16.67;;
8526;SDS011;4301;48.362;8.478;2023-03-01T15:13:26;16.90;;;15.13;;
8526;SDS011;4301;48.362;8.478;2023-03-01T15:16:00;16.83;;;14.50;;
8526;SDS011;4301;48.362;8.478;2023-03-01T15:18:42;17.10;;;15.40;;
8526;SDS011;4301;48.362;8.478;2023-03-01T15:21:15;17.13;;;15.33;;
8526;SDS011;4301;48.362;8.478;2023-03-01T15:23:47;18.47;;;15.43;;
8526;SDS011;4301;48.362;8.478;2023-03-01T15:26:21;17.00;;;15.30;;
8526;SDS011;4301;48.362;8.478;2023-03-01T15:28:50;17.70;;;14.57;;